sensor_id;sensor_type;location;lat;lon;timestamp;temperature;humidity
37594;DHT22;23441;50.856;6.076;2023-05-01T00:01:38;10.60;99.90
37594;DHT22;23441;50.856;6.076;2023-05-01T00:04:03;10.60;99.90
37594;DHT22;23441;50.856;6.076;2023-05-01T00:06:29;10.60;99.90
37594;DHT22;23441;50.856;6.076;2023-05-01T00:08:55;10.50;99.90
37594;DHT22;23441;50.856;6.076;2023-05-01T00:11:21;10.50;99.90
37594;DHT22;23441;50.856;6.076;2023-05-01T00:13:47;10.60;99.90
37594;DHT22;23441;50.856;6.076;2023-05-01T00:16:13;10.60;99.90
37594;DHT22;23441;50.856;6.076;2023-05-01T00:18:39;10.60;99.90
37594;DHT22;23441;50.856;6.076;2023-05-01T00:21:04;10.60;99.90
37594;DHT22;23441;50.856;6.076;2023-05-01T00:23:30;10.60;99.90
37594;DHT22;23441;50.856;6.076;2023-05-01T00:25:55;10.60;99.90
37594;DHT22;23441;50.856;6.076;2023-05-01T00:28:21;10.60;99.90
37594;DHT22;23441;50.856;6.076;2023-05-01T00:30:47;10.60;99.90
37594;DHT22;23441;50.856;6.076;2023-05-01T00:33:12;10.60;99.90
37594;DHT22;23441;50.856;6.076;2023-05-01T00:35:38;10.60;99.90
37594;DHT22;23441;50.856;6.076;2023-05-01T00:38:04;10.60;99.90
37594;DHT22;23441;50.856;6.076;2023-05-01T00:40:30;10.60;99.90
37594;DHT22;23441;50.856;6.076;2023-05-01T00:42:55;10.60;99.90
37594;DHT22;23441;50.856;6.076;2023-05-01T00:45:21;10.70;99.90
37594;DHT22;23441;50.856;6.076;2023-05-01T00:47:47;10.70;99.90
37594;DHT22;23441;50.856;6.076;2023-05-01T00:50:12;10.70;99.90
37594;DHT22;23441;50.856;6.076;2023-05-01T00:52:38;10.70;99.90
37594;DHT22;23441;50.856;6.076;2023-05-01T00:55:04;10.70;99.90
37594;DHT22;23441;50.856;6.076;2023-05-01T00:57:31;10.70;99.90
37594;DHT22;23441;50.856;6.076;2023-05-01T00:59:57;10.80;99.90
37594;DHT22;23441;50.856;6.076;2023-05-01T01:02:23;10.80;99.90
37594;DHT22;23441;50.856;6.076;2023-05-01T01:04:49;10.80;99.90
37594;DHT22;23441;50.856;6.076;2023-05-01T01:07:23;10.80;99.90
37594;DHT22;23441;50.856;6.076;2023-05-01T01:12:57;10.80;99.90
37594;DHT22;23441;50.856;6.076;2023-05-01T01:18:28;10.80;99.90
37594;DHT22;23441;50.856;6.076;2023-05-01T01:29:38;10.90;99.90
37594;DHT22;23441;50.856;6.076;2023-05-01T01:35:11;11.00;99.90
37594;DHT22;23441;50.856;6.076;2023-05-01T01:37:42;11.00;99.90
37594;DHT22;23441;50.856;6.076;2023-05-01T01:40:12;11.00;99.90
37594;DHT22;23441;50.856;6.076;2023-05-01T01:42:45;11.00;99.90
37594;DHT22;23441;50.856;6.076;2023-05-01T01:45:20;11.00;99.90
37594;DHT22;23441;50.856;6.076;2023-05-01T01:47:50;11.00;99.90
37594;DHT22;23441;50.856;6.076;2023-05-01T01:50:17;11.10;99.90
37594;DHT22;23441;50.856;6.076;2023-05-01T01:52:48;11.10;99.90
37594;DHT22;23441;50.856;6.076;2023-05-01T01:55:14;11.10;99.90
37594;DHT22;23441;50.856;6.076;2023-05-01T01:57:43;11.10;99.90
37594;DHT22;23441;50.856;6.076;2023-05-01T02:00:11;11.10;99.90
37594;DHT22;23441;50.856;6.076;2023-05-01T02:02:38;11.10;99.90
37594;DHT22;23441;50.856;6.076;2023-05-01T02:05:10;11.10;99.90
37594;DHT22;23441;50.856;6.076;2023-05-01T02:07:38;11.10;99.90
37594;DHT22;23441;50.856;6.076;2023-05-01T02:10:10;11.20;99.90
37594;DHT22;23441;50.856;6.076;2023-05-01T02:12:37;11.20;99.90
37594;DHT22;23441;50.856;6.076;2023-05-01T02:15:05;11.20;99.90
37594;DHT22;23441;50.856;6.076;2023-05-01T02:17:32;11.10;99.90
37594;DHT22;23441;50.856;6.076;2023-05-01T02:20:00;11.10;99.90
37594;DHT22;23441;50.856;6.076;2023-05-01T02:22:26;11.10;99.90
37594;DHT22;23441;50.856;6.076;2023-05-01T02:24:53;11.10;99.90
37594;DHT22;23441;50.856;6.076;2023-05-01T02:27:24;11.10;99.90
37594;DHT22;23441;50.856;6.076;2023-05-01T02:29:51;11.10;99.90
37594;DHT22;23441;50.856;6.076;2023-05-01T02:32:18;11.10;99.90
37594;DHT22;23441;50.856;6.076;2023-05-01T02:34:44;11.00;99.90
37594;DHT22;23441;50.856;6.076;2023-05-01T02:37:10;11.00;99.90
37594;DHT22;23441;50.856;6.076;2023-05-01T02:39:37;10.90;99.90
37594;DHT22;23441;50.856;6.076;2023-05-01T02:42:04;10.90;99.90
37594;DHT22;23441;50.856;6.076;2023-05-01T02:44:42;10.80;99.90
37594;DHT22;23441;50.856;6.076;2023-05-01T02:47:15;10.90;99.90
37594;DHT22;23441;50.856;6.076;2023-05-01T02:49:43;11.00;99.90
37594;DHT22;23441;50.856;6.076;2023-05-01T02:52:10;11.00;99.90
37594;DHT22;23441;50.856;6.076;2023-05-01T02:54:37;11.00;99.90
37594;DHT22;23441;50.856;6.076;2023-05-01T02:57:03;10.90;99.90
37594;DHT22;23441;50.856;6.076;2023-05-01T02:59:30;10.90;99.90
37594;DHT22;23441;50.856;6.076;2023-05-01T03:01:56;10.80;99.90
37594;DHT22;23441;50.856;6.076;2023-05-01T03:04:21;10.80;99.90
37594;DHT22;23441;50.856;6.076;2023-05-01T03:06:47;10.80;99.90
37594;DHT22;23441;50.856;6.076;2023-05-01T03:09:13;10.70;99.90
37594;DHT22;23441;50.856;6.076;2023-05-01T03:11:38;10.70;99.90
37594;DHT22;23441;50.856;6.076;2023-05-01T03:14:04;10.70;99.90
37594;DHT22;23441;50.856;6.076;2023-05-01T03:16:30;10.60;99.90
37594;DHT22;23441;50.856;6.076;2023-05-01T03:18:55;10.60;99.90
37594;DHT22;23441;50.856;6.076;2023-05-01T03:21:21;10.60;99.90
37594;DHT22;23441;50.856;6.076;2023-05-01T03:23:47;10.50;99.90
37594;DHT22;23441;50.856;6.076;2023-05-01T03:26:13;10.50;99.90
37594;DHT22;23441;50.856;6.076;2023-05-01T03:28:39;10.50;99.90
37594;DHT22;23441;50.856;6.076;2023-05-01T03:31:04;10.50;99.90
37594;DHT22;23441;50.856;6.076;2023-05-01T03:33:30;10.50;99.90
37594;DHT22;23441;50.856;6.076;2023-05-01T03:36:03;10.50;99.90
37594;DHT22;23441;50.856;6.076;2023-05-01T03:38:30;10.40;99.90
37594;DHT22;23441;50.856;6.076;2023-05-01T03:40:57;10.40;99.90
37594;DHT22;23441;50.856;6.076;2023-05-01T03:43:23;10.40;99.90
37594;DHT22;23441;50.856;6.076;2023-05-01T03:45:50;10.30;99.90
37594;DHT22;23441;50.856;6.076;2023-05-01T03:48:16;10.30;99.90
37594;DHT22;23441;50.856;6.076;2023-05-01T03:50:42;10.20;99.90
37594;DHT22;23441;50.856;6.076;2023-05-01T03:53:07;10.10;99.90
37594;DHT22;23441;50.856;6.076;2023-05-01T03:55:33;10.10;99.90
37594;DHT22;23441;50.856;6.076;2023-05-01T03:57:59;10.10;99.90
37594;DHT22;23441;50.856;6.076;2023-05-01T04:00:25;10.10;99.90
37594;DHT22;23441;50.856;6.076;2023-05-01T04:02:51;10.00;99.90
37594;DHT22;23441;50.856;6.076;2023-05-01T04:05:17;10.00;99.90
37594;DHT22;23441;50.856;6.076;2023-05-01T04:07:43;9.90;99.90
37594;DHT22;23441;50.856;6.076;2023-05-01T04:10:09;9.80;99.90
37594;DHT22;23441;50.856;6.076;2023-05-01T04:12:35;9.90;99.90
37594;DHT22;23441;50.856;6.076;2023-05-01T04:15:01;9.80;99.90
37594;DHT22;23441;50.856;6.076;2023-05-01T04:17:29;9.80;99.90
37594;DHT22;23441;50.856;6.076;2023-05-01T04:19:54;9.80;99.90
37594;DHT22;23441;50.856;6.076;2023-05-01T04:22:21;9.80;99.90
37594;DHT22;23441;50.856;6.076;2023-05-01T04:24:48;9.80;99.90
37594;DHT22;23441;50.856;6.076;2023-05-01T04:27:13;9.80;99.90
37594;DHT22;23441;50.856;6.076;2023-05-01T04:29:39;9.80;99.90
37594;DHT22;23441;50.856;6.076;2023-05-01T04:32:06;9.90;99.90
37594;DHT22;23441;50.856;6.076;2023-05-01T04:34:32;9.90;99.90
37594;DHT22;23441;50.856;6.076;2023-05-01T04:36:58;9.90;99.90
37594;DHT22;23441;50.856;6.076;2023-05-01T04:39:23;10.00;99.90
37594;DHT22;23441;50.856;6.076;2023-05-01T04:41:49;10.00;99.90
37594;DHT22;23441;50.856;6.076;2023-05-01T04:44:15;10.00;99.90
37594;DHT22;23441;50.856;6.076;2023-05-01T04:46:40;10.10;99.90
37594;DHT22;23441;50.856;6.076;2023-05-01T04:49:06;10.10;99.90
37594;DHT22;23441;50.856;6.076;2023-05-01T04:51:32;10.20;99.90
37594;DHT22;23441;50.856;6.076;2023-05-01T04:53:58;10.20;99.90
37594;DHT22;23441;50.856;6.076;2023-05-01T04:56:24;10.30;99.90
37594;DHT22;23441;50.856;6.076;2023-05-01T04:58:50;10.30;99.90
37594;DHT22;23441;50.856;6.076;2023-05-01T05:01:16;10.30;99.90
37594;DHT22;23441;50.856;6.076;2023-05-01T05:03:42;10.40;99.90
37594;DHT22;23441;50.856;6.076;2023-05-01T05:06:08;10.40;99.90
37594;DHT22;23441;50.856;6.076;2023-05-01T05:08:33;10.40;99.90
37594;DHT22;23441;50.856;6.076;2023-05-01T05:10:59;10.50;99.90
37594;DHT22;23441;50.856;6.076;2023-05-01T05:13:26;10.50;99.90
37594;DHT22;23441;50.856;6.076;2023-05-01T05:15:51;10.60;99.90
37594;DHT22;23441;50.856;6.076;2023-05-01T05:18:17;10.60;99.90
37594;DHT22;23441;50.856;6.076;2023-05-01T05:20:43;10.70;99.90
37594;DHT22;23441;50.856;6.076;2023-05-01T05:23:09;10.80;99.90
37594;DHT22;23441;50.856;6.076;2023-05-01T05:25:34;10.80;99.90
37594;DHT22;23441;50.856;6.076;2023-05-01T05:28:00;10.90;99.90
37594;DHT22;23441;50.856;6.076;2023-05-01T05:30:26;10.90;99.90
37594;DHT22;23441;50.856;6.076;2023-05-01T05:32:52;11.00;99.90
37594;DHT22;23441;50.856;6.076;2023-05-01T05:35:18;11.10;99.90
37594;DHT22;23441;50.856;6.076;2023-05-01T05:37:43;11.10;99.90
37594;DHT22;23441;50.856;6.076;2023-05-01T05:40:09;11.20;99.90
37594;DHT22;23441;50.856;6.076;2023-05-01T05:42:35;11.30;99.90
37594;DHT22;23441;50.856;6.076;2023-05-01T05:45:01;11.40;99.90
37594;DHT22;23441;50.856;6.076;2023-05-01T05:47:26;11.40;99.90
37594;DHT22;23441;50.856;6.076;2023-05-01T05:49:52;11.50;99.90
37594;DHT22;23441;50.856;6.076;2023-05-01T05:52:19;11.60;99.90
37594;DHT22;23441;50.856;6.076;2023-05-01T05:54:45;11.60;99.90
37594;DHT22;23441;50.856;6.076;2023-05-01T05:57:11;11.70;99.90
37594;DHT22;23441;50.856;6.076;2023-05-01T05:59:37;11.80;99.90
37594;DHT22;23441;50.856;6.076;2023-05-01T06:02:03;11.90;99.90
37594;DHT22;23441;50.856;6.076;2023-05-01T06:04:28;12.00;99.90
37594;DHT22;23441;50.856;6.076;2023-05-01T06:06:54;12.10;99.90
37594;DHT22;23441;50.856;6.076;2023-05-01T06:09:20;12.20;99.90
37594;DHT22;23441;50.856;6.076;2023-05-01T06:11:46;12.30;99.90
37594;DHT22;23441;50.856;6.076;2023-05-01T06:14:12;12.40;99.90
37594;DHT22;23441;50.856;6.076;2023-05-01T06:16:38;12.50;99.90
37594;DHT22;23441;50.856;6.076;2023-05-01T06:19:04;12.60;99.90
37594;DHT22;23441;50.856;6.076;2023-05-01T06:21:30;12.70;99.90
37594;DHT22;23441;50.856;6.076;2023-05-01T06:23:57;12.90;99.90
37594;DHT22;23441;50.856;6.076;2023-05-01T06:26:22;13.20;99.90
37594;DHT22;23441;50.856;6.076;2023-05-01T06:28:48;13.30;99.90
37594;DHT22;23441;50.856;6.076;2023-05-01T06:31:14;13.50;99.90
37594;DHT22;23441;50.856;6.076;2023-05-01T06:33:40;13.80;99.90
37594;DHT22;23441;50.856;6.076;2023-05-01T06:36:06;13.90;99.90
37594;DHT22;23441;50.856;6.076;2023-05-01T06:38:31;13.90;99.90
37594;DHT22;23441;50.856;6.076;2023-05-01T06:41:00;14.00;99.90
37594;DHT22;23441;50.856;6.076;2023-05-01T06:43:25;14.10;99.90
37594;DHT22;23441;50.856;6.076;2023-05-01T06:45:55;14.20;99.90
37594;DHT22;23441;50.856;6.076;2023-05-01T06:48:21;14.40;99.90
37594;DHT22;23441;50.856;6.076;2023-05-01T06:50:47;14.50;99.90
37594;DHT22;23441;50.856;6.076;2023-05-01T06:53:12;14.70;99.90
37594;DHT22;23441;50.856;6.076;2023-05-01T06:55:38;14.90;99.90
37594;DHT22;23441;50.856;6.076;2023-05-01T06:58:04;15.10;99.90
37594;DHT22;23441;50.856;6.076;2023-05-01T07:00:31;15.20;99.90
37594;DHT22;23441;50.856;6.076;2023-05-01T07:02:56;15.40;99.90
37594;DHT22;23441;50.856;6.076;2023-05-01T07:05:22;15.90;99.90
37594;DHT22;23441;50.856;6.076;2023-05-01T07:07:47;16.20;99.90
37594;DHT22;23441;50.856;6.076;2023-05-01T07:10:14;16.40;99.90
37594;DHT22;23441;50.856;6.076;2023-05-01T07:12:40;16.50;99.90
37594;DHT22;23441;50.856;6.076;2023-05-01T07:15:06;16.70;99.90
37594;DHT22;23441;50.856;6.076;2023-05-01T07:17:32;16.60;99.90
37594;DHT22;23441;50.856;6.076;2023-05-01T07:19:58;16.70;99.90
37594;DHT22;23441;50.856;6.076;2023-05-01T07:22:25;16.60;99.90
37594;DHT22;23441;50.856;6.076;2023-05-01T07:24:50;16.80;99.90
37594;DHT22;23441;50.856;6.076;2023-05-01T07:27:16;16.80;99.90
37594;DHT22;23441;50.856;6.076;2023-05-01T07:29:41;16.80;99.90
37594;DHT22;23441;50.856;6.076;2023-05-01T07:32:07;16.80;99.90
37594;DHT22;23441;50.856;6.076;2023-05-01T07:34:33;16.90;99.90
37594;DHT22;23441;50.856;6.076;2023-05-01T07:36:59;16.80;99.90
37594;DHT22;23441;50.856;6.076;2023-05-01T07:39:25;17.10;99.90
37594;DHT22;23441;50.856;6.076;2023-05-01T07:41:50;16.90;99.90
37594;DHT22;23441;50.856;6.076;2023-05-01T07:44:16;17.00;99.90
37594;DHT22;23441;50.856;6.076;2023-05-01T07:46:42;17.10;99.90
37594;DHT22;23441;50.856;6.076;2023-05-01T07:49:07;17.30;99.90
37594;DHT22;23441;50.856;6.076;2023-05-01T07:51:33;17.20;99.90
37594;DHT22;23441;50.856;6.076;2023-05-01T07:53:58;17.40;99.90
37594;DHT22;23441;50.856;6.076;2023-05-01T07:56:31;17.60;99.90
37594;DHT22;23441;50.856;6.076;2023-05-01T07:58:57;18.30;99.90
37594;DHT22;23441;50.856;6.076;2023-05-01T08:01:23;18.90;99.90
37594;DHT22;23441;50.856;6.076;2023-05-01T08:03:49;18.80;99.90
37594;DHT22;23441;50.856;6.076;2023-05-01T08:06:15;19.10;99.90
37594;DHT22;23441;50.856;6.076;2023-05-01T08:08:41;19.30;99.90
37594;DHT22;23441;50.856;6.076;2023-05-01T08:11:08;19.70;98.20
37594;DHT22;23441;50.856;6.076;2023-05-01T08:13:34;19.80;99.10
37594;DHT22;23441;50.856;6.076;2023-05-01T08:16:03;19.40;97.70
37594;DHT22;23441;50.856;6.076;2023-05-01T08:18:29;19.40;98.40
37594;DHT22;23441;50.856;6.076;2023-05-01T08:20:55;19.00;98.00
37594;DHT22;23441;50.856;6.076;2023-05-01T08:23:21;19.00;98.60
37594;DHT22;23441;50.856;6.076;2023-05-01T08:25:46;18.80;98.40
37594;DHT22;23441;50.856;6.076;2023-05-01T08:28:15;18.80;97.70
37594;DHT22;23441;50.856;6.076;2023-05-01T08:30:42;18.40;99.50
37594;DHT22;23441;50.856;6.076;2023-05-01T08:33:08;18.20;99.90
37594;DHT22;23441;50.856;6.076;2023-05-01T08:35:34;18.10;99.80
37594;DHT22;23441;50.856;6.076;2023-05-01T08:38:00;18.10;99.90
37594;DHT22;23441;50.856;6.076;2023-05-01T08:40:26;17.90;99.90
37594;DHT22;23441;50.856;6.076;2023-05-01T08:42:53;17.90;99.90
37594;DHT22;23441;50.856;6.076;2023-05-01T08:45:21;18.00;99.90
37594;DHT22;23441;50.856;6.076;2023-05-01T08:47:48;18.20;99.90
37594;DHT22;23441;50.856;6.076;2023-05-01T08:50:16;18.50;99.90
37594;DHT22;23441;50.856;6.076;2023-05-01T08:52:43;18.60;99.90
37594;DHT22;23441;50.856;6.076;2023-05-01T08:55:12;18.70;99.90
37594;DHT22;23441;50.856;6.076;2023-05-01T08:57:39;18.70;99.90
37594;DHT22;23441;50.856;6.076;2023-05-01T09:00:10;18.60;99.90
37594;DHT22;23441;50.856;6.076;2023-05-01T09:02:40;18.40;99.50
37594;DHT22;23441;50.856;6.076;2023-05-01T09:05:07;18.30;99.90
37594;DHT22;23441;50.856;6.076;2023-05-01T09:07:33;18.30;99.90
37594;DHT22;23441;50.856;6.076;2023-05-01T09:09:59;18.10;99.90
37594;DHT22;23441;50.856;6.076;2023-05-01T09:12:25;18.00;99.90
37594;DHT22;23441;50.856;6.076;2023-05-01T09:14:52;17.70;99.90
37594;DHT22;23441;50.856;6.076;2023-05-01T09:17:19;17.60;99.90
37594;DHT22;23441;50.856;6.076;2023-05-01T09:19:46;17.50;99.80
37594;DHT22;23441;50.856;6.076;2023-05-01T09:22:13;17.50;99.90
37594;DHT22;23441;50.856;6.076;2023-05-01T09:24:38;17.40;99.90
37594;DHT22;23441;50.856;6.076;2023-05-01T09:27:05;17.20;99.90
37594;DHT22;23441;50.856;6.076;2023-05-01T09:29:44;17.00;99.90
37594;DHT22;23441;50.856;6.076;2023-05-01T09:34:41;17.10;99.90
37594;DHT22;23441;50.856;6.076;2023-05-01T09:37:11;17.20;99.90
37594;DHT22;23441;50.856;6.076;2023-05-01T09:39:38;17.50;99.90
37594;DHT22;23441;50.856;6.076;2023-05-01T09:42:03;17.50;99.90
37594;DHT22;23441;50.856;6.076;2023-05-01T09:44:29;17.50;99.90
37594;DHT22;23441;50.856;6.076;2023-05-01T09:46:55;17.60;99.90
37594;DHT22;23441;50.856;6.076;2023-05-01T09:49:44;17.70;99.90
37594;DHT22;23441;50.856;6.076;2023-05-01T09:52:10;17.90;99.90
37594;DHT22;23441;50.856;6.076;2023-05-01T09:54:36;17.80;99.90
37594;DHT22;23441;50.856;6.076;2023-05-01T09:57:02;17.70;99.90
37594;DHT22;23441;50.856;6.076;2023-05-01T09:59:29;17.80;99.90
37594;DHT22;23441;50.856;6.076;2023-05-01T10:01:56;17.90;99.90
37594;DHT22;23441;50.856;6.076;2023-05-01T10:04:32;18.20;99.90
37594;DHT22;23441;50.856;6.076;2023-05-01T10:07:13;18.30;99.90
37594;DHT22;23441;50.856;6.076;2023-05-01T10:09:39;18.50;99.90
37594;DHT22;23441;50.856;6.076;2023-05-01T10:12:06;18.70;99.90
37594;DHT22;23441;50.856;6.076;2023-05-01T10:14:32;18.70;99.90
37594;DHT22;23441;50.856;6.076;2023-05-01T10:17:16;18.70;99.90
37594;DHT22;23441;50.856;6.076;2023-05-01T10:19:43;18.70;99.90
37594;DHT22;23441;50.856;6.076;2023-05-01T10:22:08;18.70;99.90
37594;DHT22;23441;50.856;6.076;2023-05-01T10:24:35;18.80;99.90
37594;DHT22;23441;50.856;6.076;2023-05-01T10:27:01;19.00;99.90
37594;DHT22;23441;50.856;6.076;2023-05-01T10:29:30;19.00;99.90
37594;DHT22;23441;50.856;6.076;2023-05-01T10:31:56;19.20;99.90
37594;DHT22;23441;50.856;6.076;2023-05-01T10:34:23;19.40;99.90
37594;DHT22;23441;50.856;6.076;2023-05-01T10:36:57;19.70;99.90
37594;DHT22;23441;50.856;6.076;2023-05-01T10:39:35;19.80;98.80
37594;DHT22;23441;50.856;6.076;2023-05-01T10:42:08;19.80;99.40
37594;DHT22;23441;50.856;6.076;2023-05-01T10:44:38;20.00;99.90
37594;DHT22;23441;50.856;6.076;2023-05-01T10:53:14;19.70;98.80
37594;DHT22;23441;50.856;6.076;2023-05-01T10:55:42;19.70;98.20
37594;DHT22;23441;50.856;6.076;2023-05-01T10:58:08;19.30;99.20
37594;DHT22;23441;50.856;6.076;2023-05-01T11:00:34;19.10;99.30
37594;DHT22;23441;50.856;6.076;2023-05-01T11:06:15;19.20;98.90
37594;DHT22;23441;50.856;6.076;2023-05-01T11:08:40;19.00;99.80
37594;DHT22;23441;50.856;6.076;2023-05-01T11:14:02;19.10;99.30
37594;DHT22;23441;50.856;6.076;2023-05-01T11:19:43;19.90;98.80
37594;DHT22;23441;50.856;6.076;2023-05-01T11:21:55;20.30;96.80
37594;DHT22;23441;50.856;6.076;2023-05-01T11:24:30;20.40;97.60
37594;DHT22;23441;50.856;6.076;2023-05-01T11:26:56;20.60;98.90
37594;DHT22;23441;50.856;6.076;2023-05-01T11:29:30;20.70;99.30
37594;DHT22;23441;50.856;6.076;2023-05-01T11:31:57;20.90;99.70
37594;DHT22;23441;50.856;6.076;2023-05-01T11:34:23;21.10;96.00
37594;DHT22;23441;50.856;6.076;2023-05-01T11:36:50;20.90;97.00
37594;DHT22;23441;50.856;6.076;2023-05-01T11:39:17;20.80;97.90
37594;DHT22;23441;50.856;6.076;2023-05-01T11:41:43;20.80;97.70
37594;DHT22;23441;50.856;6.076;2023-05-01T11:44:15;20.80;97.30
37594;DHT22;23441;50.856;6.076;2023-05-01T11:46:41;20.90;97.70
37594;DHT22;23441;50.856;6.076;2023-05-01T11:49:07;20.90;96.40
37594;DHT22;23441;50.856;6.076;2023-05-01T11:51:34;20.90;96.40
37594;DHT22;23441;50.856;6.076;2023-05-01T11:56:27;20.60;96.00
37594;DHT22;23441;50.856;6.076;2023-05-01T11:58:58;20.80;96.50
37594;DHT22;23441;50.856;6.076;2023-05-01T12:01:41;20.90;96.00
37594;DHT22;23441;50.856;6.076;2023-05-01T12:04:09;20.80;97.10
37594;DHT22;23441;50.856;6.076;2023-05-01T12:06:40;21.20;96.80
37594;DHT22;23441;50.856;6.076;2023-05-01T12:09:16;21.60;95.80
37594;DHT22;23441;50.856;6.076;2023-05-01T12:11:44;21.50;96.00
37594;DHT22;23441;50.856;6.076;2023-05-01T12:14:12;21.10;96.20
37594;DHT22;23441;50.856;6.076;2023-05-01T12:16:39;20.90;96.60
37594;DHT22;23441;50.856;6.076;2023-05-01T12:19:05;20.80;97.00
37594;DHT22;23441;50.856;6.076;2023-05-01T12:21:31;20.90;96.50
37594;DHT22;23441;50.856;6.076;2023-05-01T12:24:07;20.90;97.80
37594;DHT22;23441;50.856;6.076;2023-05-01T12:26:33;21.00;97.70
37594;DHT22;23441;50.856;6.076;2023-05-01T12:29:06;20.60;97.40
37594;DHT22;23441;50.856;6.076;2023-05-01T12:31:34;20.90;97.70
37594;DHT22;23441;50.856;6.076;2023-05-01T12:34:04;21.50;99.00
37594;DHT22;23441;50.856;6.076;2023-05-01T12:36:32;21.80;95.70
37594;DHT22;23441;50.856;6.076;2023-05-01T12:41:42;21.60;95.10
37594;DHT22;23441;50.856;6.076;2023-05-01T12:44:18;21.60;95.70
37594;DHT22;23441;50.856;6.076;2023-05-01T12:46:52;22.10;96.90
37594;DHT22;23441;50.856;6.076;2023-05-01T12:49:18;22.20;95.60
37594;DHT22;23441;50.856;6.076;2023-05-01T12:51:55;22.30;97.80
37594;DHT22;23441;50.856;6.076;2023-05-01T12:54:32;22.70;97.10
37594;DHT22;23441;50.856;6.076;2023-05-01T12:59:30;22.70;94.90
37594;DHT22;23441;50.856;6.076;2023-05-01T13:02:01;22.60;93.60
37594;DHT22;23441;50.856;6.076;2023-05-01T13:04:28;22.00;92.90
37594;DHT22;23441;50.856;6.076;2023-05-01T13:06:54;21.00;94.90
37594;DHT22;23441;50.856;6.076;2023-05-01T13:09:24;20.10;96.30
37594;DHT22;23441;50.856;6.076;2023-05-01T13:11:59;19.70;96.20
37594;DHT22;23441;50.856;6.076;2023-05-01T13:14:38;19.30;95.30
37594;DHT22;23441;50.856;6.076;2023-05-01T13:17:06;18.80;96.20
37594;DHT22;23441;50.856;6.076;2023-05-01T13:19:32;18.30;95.50
37594;DHT22;23441;50.856;6.076;2023-05-01T13:21:58;18.00;94.70
37594;DHT22;23441;50.856;6.076;2023-05-01T13:24:37;17.60;95.90
37594;DHT22;23441;50.856;6.076;2023-05-01T13:27:03;17.40;95.90
37594;DHT22;23441;50.856;6.076;2023-05-01T13:29:30;17.40;96.10
37594;DHT22;23441;50.856;6.076;2023-05-01T13:31:55;17.60;95.50
37594;DHT22;23441;50.856;6.076;2023-05-01T13:34:28;17.40;95.90
37594;DHT22;23441;50.856;6.076;2023-05-01T13:36:54;17.30;96.00
37594;DHT22;23441;50.856;6.076;2023-05-01T13:39:21;17.30;96.00
37594;DHT22;23441;50.856;6.076;2023-05-01T13:41:47;17.20;96.30
37594;DHT22;23441;50.856;6.076;2023-05-01T13:44:15;17.30;96.30
37594;DHT22;23441;50.856;6.076;2023-05-01T13:46:41;17.50;96.40
37594;DHT22;23441;50.856;6.076;2023-05-01T13:49:07;17.80;95.90
37594;DHT22;23441;50.856;6.076;2023-05-01T13:51:34;17.80;96.20
37594;DHT22;23441;50.856;6.076;2023-05-01T13:54:02;18.00;96.00
37594;DHT22;23441;50.856;6.076;2023-05-01T13:56:28;17.90;96.20
37594;DHT22;23441;50.856;6.076;2023-05-01T13:58:58;17.60;96.10
37594;DHT22;23441;50.856;6.076;2023-05-01T14:01:24;17.80;97.90
37594;DHT22;23441;50.856;6.076;2023-05-01T14:03:50;17.80;97.50
37594;DHT22;23441;50.856;6.076;2023-05-01T14:06:17;18.10;96.60
37594;DHT22;23441;50.856;6.076;2023-05-01T14:08:45;18.70;98.00
37594;DHT22;23441;50.856;6.076;2023-05-01T14:11:12;18.60;94.90
37594;DHT22;23441;50.856;6.076;2023-05-01T14:13:46;18.40;95.80
37594;DHT22;23441;50.856;6.076;2023-05-01T14:16:26;18.50;96.30
37594;DHT22;23441;50.856;6.076;2023-05-01T14:18:53;18.80;95.70
37594;DHT22;23441;50.856;6.076;2023-05-01T14:21:22;18.90;95.00
37594;DHT22;23441;50.856;6.076;2023-05-01T14:23:49;19.10;96.00
37594;DHT22;23441;50.856;6.076;2023-05-01T14:26:17;19.30;96.50
37594;DHT22;23441;50.856;6.076;2023-05-01T14:28:44;19.30;94.30
37594;DHT22;23441;50.856;6.076;2023-05-01T14:31:24;19.20;94.20
37594;DHT22;23441;50.856;6.076;2023-05-01T14:33:59;19.20;95.30
37594;DHT22;23441;50.856;6.076;2023-05-01T14:36:26;19.10;94.20
37594;DHT22;23441;50.856;6.076;2023-05-01T14:39:01;19.20;94.90
37594;DHT22;23441;50.856;6.076;2023-05-01T14:41:27;19.20;94.90
37594;DHT22;23441;50.856;6.076;2023-05-01T14:43:54;19.00;95.40
37594;DHT22;23441;50.856;6.076;2023-05-01T14:46:30;19.10;95.10
37594;DHT22;23441;50.856;6.076;2023-05-01T14:48:56;18.80;96.00
37594;DHT22;23441;50.856;6.076;2023-05-01T14:51:22;18.80;95.60
37594;DHT22;23441;50.856;6.076;2023-05-01T14:53:48;18.60;96.70
37594;DHT22;23441;50.856;6.076;2023-05-01T14:56:13;18.40;96.00
37594;DHT22;23441;50.856;6.076;2023-05-01T14:58:39;18.40;96.20
37594;DHT22;23441;50.856;6.076;2023-05-01T15:01:05;18.30;96.10
37594;DHT22;23441;50.856;6.076;2023-05-01T15:03:33;18.20;96.70
37594;DHT22;23441;50.856;6.076;2023-05-01T15:06:09;17.90;97.10
37594;DHT22;23441;50.856;6.076;2023-05-01T15:08:35;17.60;99.10
37594;DHT22;23441;50.856;6.076;2023-05-01T15:11:02;17.20;99.90
37594;DHT22;23441;50.856;6.076;2023-05-01T15:13:28;16.90;99.50
37594;DHT22;23441;50.856;6.076;2023-05-01T15:15:56;16.80;99.70
37594;DHT22;23441;50.856;6.076;2023-05-01T15:18:22;16.60;99.20
37594;DHT22;23441;50.856;6.076;2023-05-01T15:20:47;16.40;99.70
37594;DHT22;23441;50.856;6.076;2023-05-01T15:23:13;16.00;99.90
37594;DHT22;23441;50.856;6.076;2023-05-01T15:25:39;15.80;99.90
37594;DHT22;23441;50.856;6.076;2023-05-01T15:28:07;15.60;99.90
37594;DHT22;23441;50.856;6.076;2023-05-01T15:30:33;15.40;99.90
37594;DHT22;23441;50.856;6.076;2023-05-01T15:32:59;15.10;99.90
37594;DHT22;23441;50.856;6.076;2023-05-01T15:35:24;15.00;99.90
37594;DHT22;23441;50.856;6.076;2023-05-01T15:37:50;14.80;99.90
37594;DHT22;23441;50.856;6.076;2023-05-01T15:40:17;14.60;99.90
37594;DHT22;23441;50.856;6.076;2023-05-01T15:42:42;14.40;99.90
37594;DHT22;23441;50.856;6.076;2023-05-01T15:45:10;14.30;99.90
37594;DHT22;23441;50.856;6.076;2023-05-01T15:47:35;14.00;99.90
37594;DHT22;23441;50.856;6.076;2023-05-01T15:50:01;13.90;99.90
37594;DHT22;23441;50.856;6.076;2023-05-01T15:52:27;13.60;99.90
37594;DHT22;23441;50.856;6.076;2023-05-01T15:54:52;13.60;99.90
37594;DHT22;23441;50.856;6.076;2023-05-01T15:57:19;13.50;99.90
37594;DHT22;23441;50.856;6.076;2023-05-01T15:59:44;13.50;99.90
37594;DHT22;23441;50.856;6.076;2023-05-01T16:02:10;13.60;99.90
37594;DHT22;23441;50.856;6.076;2023-05-01T16:04:36;13.50;99.90
37594;DHT22;23441;50.856;6.076;2023-05-01T16:07:03;13.60;99.90
37594;DHT22;23441;50.856;6.076;2023-05-01T16:09:30;13.70;99.90
37594;DHT22;23441;50.856;6.076;2023-05-01T16:11:57;13.90;99.90
37594;DHT22;23441;50.856;6.076;2023-05-01T16:14:24;14.00;99.90
37594;DHT22;23441;50.856;6.076;2023-05-01T16:16:50;14.10;99.90